TRA96K LGSM-EHAM
Flight info
| Callsign | TRA96K |
|---|---|
| Flight time | 3h 18m |
| Altitude | 36000 |
| Route | URNIL UL609 MES UL608 GIKAS DCT FSK DCT DISOR DCT LONTA UL608 DOLEV DCT ABTAN DCT SIMBA DCT EXITI DCT GASKA DCT MAPOX DCT NORKU |
| Aircraft | A21N/M-SBDE2E3FGHIJ1J5M1P2RWXYZ/LB1D1G1 |
Departure
| Time | 2026-05-08 11:53 |
|---|---|
| Airport | Samos Airport (LGSM) |
Arrival
| Time | 2026-05-08 15:12 |
|---|---|
| Airport | Amsterdam Airport Schiphol (EHAM) |
| Time | Latitude | Longitude | Altitude | Speed | Heading |
|---|---|---|---|---|---|
| 2026-05-08 11:11 | 37.69064 | 26.91280 | 34 ft | 0 kts | 4° |
| 2026-05-08 11:43 | 37.69062 | 26.91280 | 34 ft | 2 kts | 4° |
| 2026-05-08 11:43 | 37.69039 | 26.91278 | 34 ft | 2 kts | 4° |
| 2026-05-08 11:43 | 37.69016 | 26.91282 | 34 ft | 4 kts | 326° |
| 2026-05-08 11:43 | 37.69001 | 26.91306 | 34 ft | 4 kts | 287° |
| 2026-05-08 11:44 | 37.68997 | 26.91337 | 34 ft | 2 kts | 274° |
| 2026-05-08 11:44 | 37.68996 | 26.91339 | 34 ft | 0 kts | 274° |
| 2026-05-08 11:48 | 37.68997 | 26.91333 | 34 ft | 2 kts | 274° |
| 2026-05-08 11:49 | 37.68999 | 26.91294 | 34 ft | 10 kts | 274° |
| 2026-05-08 11:49 | 37.69007 | 26.91164 | 34 ft | 16 kts | 274° |
| 2026-05-08 11:49 | 37.69009 | 26.91124 | 34 ft | 4 kts | 274° |
| 2026-05-08 11:49 | 37.68994 | 26.91061 | 34 ft | 11 kts | 211° |
| 2026-05-08 11:50 | 37.68932 | 26.91012 | 34 ft | 13 kts | 261° |
| 2026-05-08 11:50 | 37.68937 | 26.90895 | 34 ft | 14 kts | 275° |
| 2026-05-08 11:50 | 37.68945 | 26.90763 | 34 ft | 16 kts | 274° |
| 2026-05-08 11:50 | 37.68953 | 26.90620 | 34 ft | 17 kts | 274° |
| 2026-05-08 11:51 | 37.68962 | 26.90464 | 34 ft | 18 kts | 274° |
| 2026-05-08 11:51 | 37.68971 | 26.90297 | 34 ft | 20 kts | 274° |
| 2026-05-08 11:51 | 37.68998 | 26.90149 | 34 ft | 11 kts | 301° |
| 2026-05-08 11:51 | 37.69000 | 26.90101 | 34 ft | 7 kts | 188° |
| 2026-05-08 11:52 | 37.68981 | 26.90150 | 34 ft | 6 kts | 95° |
| 2026-05-08 11:52 | 37.68980 | 26.90160 | 34 ft | 0 kts | 95° |
| 2026-05-08 11:53 | 37.68973 | 26.90267 | 34 ft | 46 kts | 95° |
| 2026-05-08 11:53 | 37.68929 | 26.91025 | 34 ft | 123 kts | 94° |
| 2026-05-08 11:53 | 37.68855 | 26.92344 | 175 ft | 165 kts | 95° |
| 2026-05-08 11:53 | 37.68783 | 26.93799 | 894 ft | 168 kts | 94° |
| 2026-05-08 11:54 | 37.68888 | 26.95291 | 1598 ft | 176 kts | 76° |
| 2026-05-08 11:54 | 37.69464 | 26.96676 | 2263 ft | 186 kts | 41° |
| 2026-05-08 11:54 | 37.70685 | 26.97217 | 2839 ft | 197 kts | 353° |
| 2026-05-08 11:54 | 37.71999 | 26.96489 | 3185 ft | 223 kts | 317° |
| 2026-05-08 11:55 | 37.72915 | 26.94804 | 3524 ft | 248 kts | 289° |
| 2026-05-08 11:55 | 37.73631 | 26.92744 | 4201 ft | 262 kts | 300° |
| 2026-05-08 11:55 | 37.74643 | 26.90800 | 5122 ft | 267 kts | 302° |
| 2026-05-08 11:55 | 37.75683 | 26.88846 | 6039 ft | 270 kts | 301° |
| 2026-05-08 11:56 | 37.76723 | 26.86863 | 6924 ft | 271 kts | 301° |
| 2026-05-08 11:56 | 37.77752 | 26.84887 | 7698 ft | 276 kts | 300° |
| 2026-05-08 11:56 | 37.78810 | 26.82836 | 8569 ft | 279 kts | 299° |
| 2026-05-08 11:56 | 37.79872 | 26.80764 | 9453 ft | 282 kts | 299° |
| 2026-05-08 11:57 | 37.80942 | 26.78670 | 10302 ft | 285 kts | 298° |
| 2026-05-08 11:57 | 37.82050 | 26.76490 | 10733 ft | 305 kts | 298° |
| 2026-05-08 11:57 | 37.83227 | 26.74171 | 11120 ft | 324 kts | 299° |
| 2026-05-08 11:57 | 37.84468 | 26.71731 | 11819 ft | 331 kts | 299° |
| 2026-05-08 11:58 | 37.85720 | 26.69271 | 12674 ft | 334 kts | 299° |
| 2026-05-08 11:58 | 37.86979 | 26.66791 | 13571 ft | 335 kts | 299° |
| 2026-05-08 11:58 | 37.88242 | 26.64306 | 14395 ft | 336 kts | 299° |
| 2026-05-08 11:59 | 37.90780 | 26.59290 | 15896 ft | 341 kts | 300° |
| 2026-05-08 11:59 | 37.92064 | 26.56757 | 16639 ft | 343 kts | 300° |
| 2026-05-08 11:59 | 37.93351 | 26.54201 | 17454 ft | 343 kts | 301° |
| 2026-05-08 11:59 | 37.94640 | 26.51649 | 18220 ft | 344 kts | 301° |
| 2026-05-08 12:00 | 37.95934 | 26.49084 | 18848 ft | 346 kts | 301° |
| 2026-05-08 12:00 | 37.97232 | 26.46510 | 19430 ft | 348 kts | 300° |
| 2026-05-08 12:00 | 37.98542 | 26.43907 | 20013 ft | 352 kts | 300° |
| 2026-05-08 12:00 | 37.99859 | 26.41289 | 20580 ft | 353 kts | 300° |
| 2026-05-08 12:01 | 38.01184 | 26.38653 | 21112 ft | 356 kts | 300° |
| 2026-05-08 12:01 | 38.02505 | 26.36026 | 21655 ft | 359 kts | 300° |
| 2026-05-08 12:01 | 38.03853 | 26.33339 | 22251 ft | 362 kts | 299° |
| 2026-05-08 12:01 | 38.05209 | 26.30634 | 22859 ft | 365 kts | 299° |
| 2026-05-08 12:02 | 38.06577 | 26.27904 | 23471 ft | 368 kts | 299° |
| 2026-05-08 12:02 | 38.07962 | 26.25141 | 23986 ft | 371 kts | 299° |
| 2026-05-08 12:02 | 38.09352 | 26.22362 | 24436 ft | 374 kts | 298° |
| 2026-05-08 12:02 | 38.10747 | 26.19567 | 24895 ft | 376 kts | 298° |
| 2026-05-08 12:03 | 38.12150 | 26.16756 | 25338 ft | 378 kts | 298° |
| 2026-05-08 12:03 | 38.13559 | 26.13929 | 25775 ft | 380 kts | 298° |
| 2026-05-08 12:03 | 38.14979 | 26.11076 | 26214 ft | 383 kts | 298° |
| 2026-05-08 12:03 | 38.16413 | 26.08205 | 26636 ft | 385 kts | 298° |
| 2026-05-08 12:04 | 38.17853 | 26.05324 | 27088 ft | 388 kts | 297° |
| 2026-05-08 12:04 | 38.19289 | 26.02412 | 27519 ft | 389 kts | 297° |
| 2026-05-08 12:04 | 38.20737 | 25.99490 | 27921 ft | 391 kts | 297° |
| 2026-05-08 12:04 | 38.22178 | 25.96592 | 28299 ft | 394 kts | 297° |
| 2026-05-08 12:05 | 38.23651 | 25.93639 | 28699 ft | 397 kts | 297° |
| 2026-05-08 12:05 | 38.25324 | 25.90807 | 29094 ft | 405 kts | 305° |
| 2026-05-08 12:05 | 38.27395 | 25.88315 | 29475 ft | 415 kts | 313° |
| 2026-05-08 12:05 | 38.29592 | 25.86148 | 29809 ft | 420 kts | 315° |
| 2026-05-08 12:06 | 38.31940 | 25.83919 | 30162 ft | 422 kts | 315° |
| 2026-05-08 12:06 | 38.34300 | 25.81666 | 30456 ft | 424 kts | 315° |
| 2026-05-08 12:06 | 38.36657 | 25.79392 | 30768 ft | 426 kts | 315° |
| 2026-05-08 12:06 | 38.39012 | 25.77100 | 31081 ft | 427 kts | 315° |
| 2026-05-08 12:07 | 38.41373 | 25.74799 | 31392 ft | 427 kts | 315° |
| 2026-05-08 12:07 | 38.43735 | 25.72495 | 31688 ft | 427 kts | 314° |
| 2026-05-08 12:07 | 38.46080 | 25.70196 | 32076 ft | 424 kts | 314° |
| 2026-05-08 12:07 | 38.48421 | 25.67911 | 32431 ft | 421 kts | 315° |
| 2026-05-08 12:08 | 38.50754 | 25.65620 | 32785 ft | 422 kts | 314° |
| 2026-05-08 12:08 | 38.53074 | 25.63347 | 33183 ft | 420 kts | 314° |
| 2026-05-08 12:08 | 38.55386 | 25.61080 | 33541 ft | 419 kts | 314° |
| 2026-05-08 12:08 | 38.57699 | 25.58808 | 33896 ft | 418 kts | 314° |
| 2026-05-08 12:09 | 38.59994 | 25.56545 | 34237 ft | 416 kts | 314° |
| 2026-05-08 12:09 | 38.62285 | 25.54288 | 34509 ft | 415 kts | 315° |
| 2026-05-08 12:09 | 38.64572 | 25.52043 | 34757 ft | 415 kts | 315° |
| 2026-05-08 12:09 | 38.66866 | 25.49789 | 34972 ft | 415 kts | 315° |
| 2026-05-08 12:10 | 38.69146 | 25.47545 | 35210 ft | 415 kts | 315° |
| 2026-05-08 12:10 | 38.71404 | 25.45320 | 35417 ft | 415 kts | 315° |
| 2026-05-08 12:10 | 38.73718 | 25.43033 | 35635 ft | 414 kts | 315° |
| 2026-05-08 12:10 | 38.75974 | 25.40809 | 35826 ft | 414 kts | 315° |
| 2026-05-08 12:11 | 38.78251 | 25.38554 | 36012 ft | 414 kts | 315° |
| 2026-05-08 12:11 | 38.80535 | 25.36288 | 36165 ft | 415 kts | 315° |
| 2026-05-08 12:11 | 38.85101 | 25.31768 | 36164 ft | 414 kts | 315° |
| 2026-05-08 12:12 | 38.89664 | 25.27240 | 36143 ft | 414 kts | 315° |
| 2026-05-08 12:12 | 38.94222 | 25.22710 | 36145 ft | 414 kts | 315° |
| 2026-05-08 12:13 | 38.98794 | 25.18159 | 36145 ft | 415 kts | 315° |
| 2026-05-08 12:13 | 39.03327 | 25.13637 | 36133 ft | 415 kts | 315° |
| 2026-05-08 12:14 | 39.07883 | 25.09086 | 36140 ft | 415 kts | 315° |
| 2026-05-08 12:14 | 39.12451 | 25.04518 | 36132 ft | 415 kts | 315° |
| 2026-05-08 12:15 | 39.17007 | 24.99949 | 36141 ft | 415 kts | 315° |
| 2026-05-08 12:15 | 39.21579 | 24.95359 | 36143 ft | 417 kts | 315° |
| 2026-05-08 12:16 | 39.26163 | 24.90752 | 36133 ft | 418 kts | 315° |
| 2026-05-08 12:16 | 39.30747 | 24.86131 | 36131 ft | 418 kts | 315° |
| 2026-05-08 12:17 | 39.35324 | 24.81518 | 36129 ft | 418 kts | 315° |
| 2026-05-08 12:17 | 39.39876 | 24.76917 | 36131 ft | 418 kts | 315° |
| 2026-05-08 12:18 | 39.44450 | 24.72287 | 36123 ft | 417 kts | 315° |
| 2026-05-08 12:18 | 39.49041 | 24.67620 | 36142 ft | 418 kts | 315° |
| 2026-05-08 12:19 | 39.53615 | 24.62965 | 36128 ft | 420 kts | 315° |
| 2026-05-08 12:19 | 39.58212 | 24.58286 | 36126 ft | 420 kts | 315° |
| 2026-05-08 12:20 | 39.62817 | 24.53606 | 36124 ft | 420 kts | 315° |
| 2026-05-08 12:20 | 39.66636 | 24.49701 | 36130 ft | 420 kts | 315° |
| 2026-05-08 12:21 | 39.71230 | 24.44991 | 36123 ft | 420 kts | 315° |
| 2026-05-08 12:21 | 39.75821 | 24.40298 | 36137 ft | 420 kts | 315° |
| 2026-05-08 12:22 | 39.80426 | 24.35571 | 36139 ft | 423 kts | 315° |
| 2026-05-08 12:22 | 39.85049 | 24.30821 | 36128 ft | 424 kts | 315° |
| 2026-05-08 12:23 | 39.89668 | 24.26061 | 36124 ft | 424 kts | 315° |
| 2026-05-08 12:23 | 39.94289 | 24.21289 | 36118 ft | 423 kts | 315° |
| 2026-05-08 12:24 | 39.98905 | 24.16511 | 36125 ft | 423 kts | 315° |
| 2026-05-08 12:24 | 40.03526 | 24.11731 | 36129 ft | 426 kts | 315° |
| 2026-05-08 12:25 | 40.08165 | 24.06912 | 36125 ft | 427 kts | 315° |
| 2026-05-08 12:25 | 40.12816 | 24.02076 | 36119 ft | 428 kts | 316° |
| 2026-05-08 12:26 | 40.17480 | 23.97223 | 36120 ft | 428 kts | 315° |
| 2026-05-08 12:26 | 40.22111 | 23.92395 | 36118 ft | 428 kts | 315° |
| 2026-05-08 12:27 | 40.26799 | 23.87498 | 36112 ft | 428 kts | 315° |
| 2026-05-08 12:27 | 40.31445 | 23.82633 | 36113 ft | 428 kts | 315° |
| 2026-05-08 12:28 | 40.36069 | 23.77779 | 36117 ft | 428 kts | 315° |
| 2026-05-08 12:28 | 40.40722 | 23.72891 | 36122 ft | 429 kts | 315° |
| 2026-05-08 12:29 | 40.45380 | 23.67981 | 36118 ft | 430 kts | 315° |
| 2026-05-08 12:29 | 40.50035 | 23.63069 | 36114 ft | 429 kts | 315° |
| 2026-05-08 12:30 | 40.54682 | 23.58132 | 36127 ft | 429 kts | 315° |
| 2026-05-08 12:30 | 40.59343 | 23.53183 | 36117 ft | 432 kts | 316° |
| 2026-05-08 12:31 | 40.64025 | 23.48217 | 36103 ft | 432 kts | 316° |
| 2026-05-08 12:31 | 40.68707 | 23.43249 | 36111 ft | 432 kts | 316° |
| 2026-05-08 12:32 | 40.73394 | 23.38265 | 36115 ft | 433 kts | 316° |
| 2026-05-08 12:32 | 40.78083 | 23.33258 | 36104 ft | 434 kts | 316° |
| 2026-05-08 12:33 | 40.82775 | 23.28243 | 36114 ft | 435 kts | 316° |
| 2026-05-08 12:33 | 40.87478 | 23.23211 | 36105 ft | 436 kts | 316° |
| 2026-05-08 12:34 | 40.92183 | 23.18160 | 36106 ft | 436 kts | 316° |
| 2026-05-08 12:34 | 40.96895 | 23.13121 | 36104 ft | 435 kts | 316° |
| 2026-05-08 12:35 | 41.01601 | 23.08068 | 36111 ft | 436 kts | 316° |
| 2026-05-08 12:35 | 41.06279 | 23.03023 | 36110 ft | 436 kts | 316° |
| 2026-05-08 12:36 | 41.10808 | 22.97681 | 36103 ft | 433 kts | 307° |
| 2026-05-08 12:36 | 41.14711 | 22.91600 | 36104 ft | 432 kts | 306° |
| 2026-05-08 12:37 | 41.18579 | 22.85494 | 36099 ft | 433 kts | 306° |
| 2026-05-08 12:37 | 41.22456 | 22.79398 | 36094 ft | 432 kts | 306° |
| 2026-05-08 12:38 | 41.26411 | 22.73362 | 36108 ft | 433 kts | 308° |
| 2026-05-08 12:38 | 41.30470 | 22.67425 | 36096 ft | 433 kts | 308° |
| 2026-05-08 12:39 | 41.34503 | 22.61521 | 36094 ft | 433 kts | 308° |
| 2026-05-08 12:39 | 41.38558 | 22.55581 | 36092 ft | 434 kts | 308° |
| 2026-05-08 12:40 | 41.42610 | 22.49609 | 36078 ft | 434 kts | 308° |
| 2026-05-08 12:40 | 41.46652 | 22.43628 | 36075 ft | 434 kts | 309° |
| 2026-05-08 12:41 | 41.50712 | 22.37651 | 36073 ft | 435 kts | 309° |
| 2026-05-08 12:41 | 41.54777 | 22.31664 | 36063 ft | 435 kts | 309° |
| 2026-05-08 12:42 | 41.58827 | 22.25672 | 36062 ft | 435 kts | 309° |
| 2026-05-08 12:42 | 41.62873 | 22.19660 | 36062 ft | 435 kts | 309° |
| 2026-05-08 12:43 | 41.66918 | 22.13650 | 36063 ft | 435 kts | 309° |
| 2026-05-08 12:43 | 41.70942 | 22.07647 | 36073 ft | 439 kts | 309° |
| 2026-05-08 12:44 | 41.75018 | 22.01551 | 36053 ft | 439 kts | 309° |
| 2026-05-08 12:44 | 41.79094 | 21.95458 | 36038 ft | 439 kts | 309° |
| 2026-05-08 12:45 | 41.83138 | 21.89385 | 36147 ft | 440 kts | 309° |
| 2026-05-08 12:45 | 41.85178 | 21.86319 | 36374 ft | 440 kts | 309° |
| 2026-05-08 12:45 | 41.87213 | 21.83265 | 36587 ft | 439 kts | 309° |
| 2026-05-08 12:46 | 41.89245 | 21.80207 | 36813 ft | 438 kts | 308° |
| 2026-05-08 12:46 | 41.91264 | 21.77157 | 37050 ft | 437 kts | 308° |
| 2026-05-08 12:46 | 41.93284 | 21.74114 | 37263 ft | 436 kts | 308° |
| 2026-05-08 12:46 | 41.95294 | 21.71080 | 37490 ft | 435 kts | 308° |
| 2026-05-08 12:47 | 41.97304 | 21.68040 | 37688 ft | 434 kts | 307° |
| 2026-05-08 12:47 | 41.99308 | 21.65008 | 37894 ft | 433 kts | 307° |
| 2026-05-08 12:47 | 42.01313 | 21.61976 | 38047 ft | 433 kts | 307° |
| 2026-05-08 12:47 | 42.03306 | 21.58950 | 38065 ft | 432 kts | 307° |
| 2026-05-08 12:48 | 42.07290 | 21.52904 | 38062 ft | 431 kts | 307° |
| 2026-05-08 12:48 | 42.11265 | 21.46849 | 38060 ft | 431 kts | 307° |
| 2026-05-08 12:49 | 42.15232 | 21.40789 | 38044 ft | 431 kts | 307° |
| 2026-05-08 12:49 | 42.19122 | 21.34696 | 38048 ft | 431 kts | 306° |
| 2026-05-08 12:50 | 42.23011 | 21.28523 | 38055 ft | 431 kts | 306° |
| 2026-05-08 12:50 | 42.26889 | 21.22362 | 38070 ft | 431 kts | 306° |
| 2026-05-08 12:51 | 42.32701 | 21.13102 | 38085 ft | 430 kts | 306° |
| 2026-05-08 12:52 | 42.36572 | 21.06927 | 38077 ft | 431 kts | 306° |
| 2026-05-08 12:52 | 42.42372 | 20.97643 | 38079 ft | 431 kts | 306° |
| 2026-05-08 12:53 | 42.46214 | 20.91476 | 38080 ft | 430 kts | 306° |
| 2026-05-08 12:53 | 42.50069 | 20.85272 | 38076 ft | 431 kts | 306° |
| 2026-05-08 12:54 | 42.53926 | 20.79052 | 38087 ft | 431 kts | 306° |
| 2026-05-08 12:54 | 42.57788 | 20.72822 | 38069 ft | 431 kts | 306° |
| 2026-05-08 12:55 | 42.61648 | 20.66576 | 38059 ft | 431 kts | 306° |
| 2026-05-08 12:55 | 42.65495 | 20.60339 | 38053 ft | 431 kts | 306° |
| 2026-05-08 12:56 | 42.69339 | 20.54077 | 38054 ft | 431 kts | 306° |
| 2026-05-08 12:56 | 42.73184 | 20.47823 | 38055 ft | 432 kts | 306° |
| 2026-05-08 12:57 | 42.77040 | 20.41525 | 38050 ft | 431 kts | 306° |
| 2026-05-08 12:57 | 42.80847 | 20.35301 | 38041 ft | 431 kts | 306° |
| 2026-05-08 12:58 | 42.84910 | 20.29248 | 38042 ft | 436 kts | 314° |
| 2026-05-08 12:58 | 42.89415 | 20.23745 | 38029 ft | 436 kts | 314° |
| 2026-05-08 12:59 | 42.93945 | 20.18215 | 38029 ft | 436 kts | 314° |
| 2026-05-08 12:59 | 42.98455 | 20.12671 | 38034 ft | 436 kts | 314° |
| 2026-05-08 13:00 | 43.02964 | 20.07120 | 38026 ft | 435 kts | 314° |
| 2026-05-08 13:00 | 43.07432 | 20.01611 | 38006 ft | 435 kts | 314° |
| 2026-05-08 13:01 | 43.11929 | 19.96040 | 38003 ft | 436 kts | 314° |
| 2026-05-08 13:01 | 43.16419 | 19.90497 | 37990 ft | 435 kts | 314° |
| 2026-05-08 13:02 | 43.20911 | 19.84926 | 37990 ft | 436 kts | 313° |
| 2026-05-08 13:02 | 43.25396 | 19.79339 | 37994 ft | 435 kts | 314° |
| 2026-05-08 13:03 | 43.29874 | 19.73755 | 37989 ft | 436 kts | 314° |
| 2026-05-08 13:03 | 43.34367 | 19.68133 | 37985 ft | 436 kts | 314° |
| 2026-05-08 13:04 | 43.38094 | 19.63476 | 37991 ft | 436 kts | 314° |
| 2026-05-08 13:04 | 43.42577 | 19.57859 | 37991 ft | 436 kts | 314° |
| 2026-05-08 13:05 | 43.47061 | 19.52232 | 38002 ft | 436 kts | 314° |
| 2026-05-08 13:05 | 43.51525 | 19.46603 | 38000 ft | 436 kts | 314° |
| 2026-05-08 13:06 | 43.56012 | 19.40961 | 37998 ft | 436 kts | 313° |
| 2026-05-08 13:06 | 43.60493 | 19.35303 | 38004 ft | 437 kts | 314° |
| 2026-05-08 13:07 | 43.64965 | 19.29632 | 38013 ft | 437 kts | 313° |
| 2026-05-08 13:07 | 43.69436 | 19.23957 | 38007 ft | 437 kts | 313° |
| 2026-05-08 13:08 | 43.73911 | 19.18270 | 38015 ft | 437 kts | 313° |
| 2026-05-08 13:08 | 43.78370 | 19.12565 | 38023 ft | 437 kts | 313° |
| 2026-05-08 13:09 | 43.82795 | 19.06880 | 38019 ft | 437 kts | 313° |
| 2026-05-08 13:09 | 43.87261 | 19.01189 | 38029 ft | 437 kts | 313° |
| 2026-05-08 13:10 | 43.91722 | 18.95453 | 38028 ft | 436 kts | 313° |
| 2026-05-08 13:10 | 43.96163 | 18.89703 | 38034 ft | 437 kts | 313° |
| 2026-05-08 13:11 | 44.00605 | 18.83952 | 38042 ft | 436 kts | 313° |
| 2026-05-08 13:11 | 44.05040 | 18.78206 | 38043 ft | 436 kts | 313° |
| 2026-05-08 13:12 | 44.09475 | 18.72437 | 38038 ft | 436 kts | 313° |
| 2026-05-08 13:12 | 44.13930 | 18.66690 | 38041 ft | 437 kts | 313° |
| 2026-05-08 13:13 | 44.18379 | 18.60921 | 38039 ft | 437 kts | 313° |
| 2026-05-08 13:13 | 44.22824 | 18.55131 | 38038 ft | 437 kts | 313° |
| 2026-05-08 13:14 | 44.27270 | 18.49364 | 38043 ft | 437 kts | 313° |
| 2026-05-08 13:14 | 44.31728 | 18.43579 | 38037 ft | 437 kts | 313° |
| 2026-05-08 13:15 | 44.36132 | 18.37824 | 38034 ft | 437 kts | 312° |
| 2026-05-08 13:15 | 44.40559 | 18.31986 | 38036 ft | 437 kts | 312° |
| 2026-05-08 13:16 | 44.44972 | 18.26152 | 38043 ft | 437 kts | 312° |
| 2026-05-08 13:16 | 44.49402 | 18.20315 | 38039 ft | 437 kts | 312° |
| 2026-05-08 13:17 | 44.53831 | 18.14473 | 38041 ft | 437 kts | 312° |
| 2026-05-08 13:17 | 44.58250 | 18.08618 | 38039 ft | 437 kts | 312° |
| 2026-05-08 13:18 | 44.62668 | 18.02762 | 38039 ft | 437 kts | 312° |
| 2026-05-08 13:18 | 44.67080 | 17.96893 | 38047 ft | 436 kts | 312° |
| 2026-05-08 13:19 | 44.71482 | 17.91021 | 38044 ft | 437 kts | 312° |
| 2026-05-08 13:19 | 44.75852 | 17.85180 | 38057 ft | 436 kts | 312° |
| 2026-05-08 13:20 | 44.80244 | 17.79298 | 38043 ft | 435 kts | 311° |
| 2026-05-08 13:20 | 44.84621 | 17.73408 | 38053 ft | 435 kts | 311° |
| 2026-05-08 13:21 | 44.88995 | 17.67517 | 38048 ft | 434 kts | 311° |
| 2026-05-08 13:21 | 44.93353 | 17.61635 | 38050 ft | 433 kts | 311° |
| 2026-05-08 13:22 | 44.97691 | 17.55725 | 38050 ft | 433 kts | 311° |
| 2026-05-08 13:22 | 45.02042 | 17.49814 | 38048 ft | 433 kts | 311° |
| 2026-05-08 13:23 | 45.06393 | 17.43918 | 38053 ft | 432 kts | 311° |
| 2026-05-08 13:23 | 45.10732 | 17.38019 | 38048 ft | 432 kts | 311° |
| 2026-05-08 13:24 | 45.15047 | 17.32170 | 38047 ft | 432 kts | 311° |
| 2026-05-08 13:24 | 45.19387 | 17.26245 | 38049 ft | 432 kts | 311° |
| 2026-05-08 13:25 | 45.23716 | 17.20315 | 38061 ft | 432 kts | 311° |
| 2026-05-08 13:25 | 45.28030 | 17.14378 | 38056 ft | 432 kts | 311° |
| 2026-05-08 13:26 | 45.32340 | 17.08452 | 38056 ft | 431 kts | 311° |
| 2026-05-08 13:26 | 45.36654 | 17.02511 | 38048 ft | 432 kts | 311° |
| 2026-05-08 13:27 | 45.40964 | 16.96559 | 38058 ft | 431 kts | 311° |
| 2026-05-08 13:27 | 45.45261 | 16.90598 | 38067 ft | 431 kts | 310° |
| 2026-05-08 13:28 | 45.49565 | 16.84620 | 38069 ft | 431 kts | 310° |
| 2026-05-08 13:28 | 45.53859 | 16.78640 | 38060 ft | 431 kts | 311° |
| 2026-05-08 13:29 | 45.58124 | 16.72696 | 38060 ft | 432 kts | 310° |
| 2026-05-08 13:29 | 45.62422 | 16.66691 | 38061 ft | 432 kts | 310° |
| 2026-05-08 13:30 | 45.66706 | 16.60676 | 38065 ft | 431 kts | 310° |
| 2026-05-08 13:30 | 45.70991 | 16.54661 | 38060 ft | 431 kts | 310° |
| 2026-05-08 13:31 | 45.75271 | 16.48643 | 38065 ft | 431 kts | 310° |
| 2026-05-08 13:31 | 45.79548 | 16.42613 | 38074 ft | 431 kts | 310° |
| 2026-05-08 13:32 | 45.83800 | 16.36583 | 38073 ft | 430 kts | 310° |
| 2026-05-08 13:32 | 45.88060 | 16.30559 | 38073 ft | 430 kts | 310° |
| 2026-05-08 13:33 | 45.92312 | 16.24517 | 38073 ft | 430 kts | 310° |
| 2026-05-08 13:33 | 45.96538 | 16.18496 | 38072 ft | 430 kts | 310° |
| 2026-05-08 13:34 | 46.00785 | 16.12432 | 38068 ft | 430 kts | 310° |
| 2026-05-08 13:34 | 46.05029 | 16.06367 | 38074 ft | 430 kts | 310° |
| 2026-05-08 13:35 | 46.09262 | 16.00295 | 38063 ft | 429 kts | 310° |
| 2026-05-08 13:35 | 46.13492 | 15.94220 | 38063 ft | 429 kts | 310° |
| 2026-05-08 13:36 | 46.17723 | 15.88133 | 38063 ft | 429 kts | 309° |
| 2026-05-08 13:36 | 46.21948 | 15.82040 | 38059 ft | 429 kts | 309° |
| 2026-05-08 13:37 | 46.26169 | 15.75928 | 38062 ft | 429 kts | 309° |
| 2026-05-08 13:37 | 46.30387 | 15.69814 | 38074 ft | 429 kts | 309° |
| 2026-05-08 13:38 | 46.34594 | 15.63699 | 38068 ft | 429 kts | 309° |
| 2026-05-08 13:38 | 46.38797 | 15.57559 | 38063 ft | 429 kts | 309° |
| 2026-05-08 13:39 | 46.42995 | 15.51431 | 38057 ft | 429 kts | 309° |
| 2026-05-08 13:39 | 46.47179 | 15.45321 | 38057 ft | 430 kts | 309° |
| 2026-05-08 13:40 | 46.51386 | 15.39143 | 38060 ft | 431 kts | 309° |
| 2026-05-08 13:40 | 46.55599 | 15.32948 | 38059 ft | 431 kts | 309° |
| 2026-05-08 13:41 | 46.59809 | 15.26747 | 38055 ft | 431 kts | 309° |
| 2026-05-08 13:41 | 46.64013 | 15.20529 | 38060 ft | 431 kts | 309° |
| 2026-05-08 13:42 | 46.68212 | 15.14314 | 38058 ft | 431 kts | 309° |
| 2026-05-08 13:42 | 46.72402 | 15.08056 | 38066 ft | 432 kts | 309° |
| 2026-05-08 13:43 | 46.76588 | 15.01774 | 38060 ft | 432 kts | 309° |
| 2026-05-08 13:43 | 46.80784 | 14.95517 | 38049 ft | 432 kts | 309° |
| 2026-05-08 13:44 | 46.84987 | 14.89234 | 38068 ft | 433 kts | 309° |
| 2026-05-08 13:44 | 46.89208 | 14.82960 | 38081 ft | 433 kts | 309° |
| 2026-05-08 13:45 | 46.93424 | 14.76669 | 38066 ft | 433 kts | 309° |
| 2026-05-08 13:45 | 46.97620 | 14.70359 | 38056 ft | 433 kts | 309° |
| 2026-05-08 13:46 | 47.01816 | 14.64027 | 38067 ft | 433 kts | 309° |
| 2026-05-08 13:46 | 47.05984 | 14.57716 | 38072 ft | 433 kts | 309° |
| 2026-05-08 13:47 | 47.10181 | 14.51350 | 38085 ft | 433 kts | 309° |
| 2026-05-08 13:47 | 47.14597 | 14.45307 | 38063 ft | 436 kts | 314° |
| 2026-05-08 13:48 | 47.19174 | 14.39469 | 38079 ft | 436 kts | 314° |
| 2026-05-08 13:48 | 47.23731 | 14.33588 | 38054 ft | 435 kts | 314° |
| 2026-05-08 13:49 | 47.28260 | 14.27724 | 38071 ft | 435 kts | 313° |
| 2026-05-08 13:49 | 47.32806 | 14.21811 | 38075 ft | 436 kts | 314° |
| 2026-05-08 13:50 | 47.37352 | 14.15896 | 38076 ft | 436 kts | 314° |
| 2026-05-08 13:50 | 47.41898 | 14.09963 | 38080 ft | 436 kts | 314° |
| 2026-05-08 13:51 | 47.45666 | 14.05032 | 38074 ft | 435 kts | 314° |
| 2026-05-08 13:51 | 47.50196 | 13.99081 | 38071 ft | 435 kts | 313° |
| 2026-05-08 13:52 | 47.54727 | 13.93131 | 38073 ft | 436 kts | 313° |
| 2026-05-08 13:52 | 47.59254 | 13.87167 | 38076 ft | 436 kts | 314° |
| 2026-05-08 13:53 | 47.63785 | 13.81166 | 38075 ft | 436 kts | 313° |
| 2026-05-08 13:53 | 47.68317 | 13.75178 | 38073 ft | 436 kts | 313° |
| 2026-05-08 13:54 | 47.72840 | 13.69158 | 38060 ft | 436 kts | 313° |
| 2026-05-08 13:54 | 47.77340 | 13.63119 | 38069 ft | 436 kts | 313° |
| 2026-05-08 13:55 | 47.81882 | 13.57118 | 38078 ft | 436 kts | 314° |
| 2026-05-08 13:56 | 47.88631 | 13.48095 | 38070 ft | 436 kts | 313° |
| 2026-05-08 13:56 | 47.93148 | 13.42044 | 38069 ft | 436 kts | 313° |
| 2026-05-08 13:57 | 47.97657 | 13.35981 | 38069 ft | 436 kts | 313° |
| 2026-05-08 13:57 | 48.02171 | 13.29896 | 38083 ft | 436 kts | 313° |
| 2026-05-08 13:58 | 48.06673 | 13.23804 | 38085 ft | 437 kts | 313° |
| 2026-05-08 13:58 | 48.11181 | 13.17692 | 38084 ft | 437 kts | 313° |
| 2026-05-08 13:59 | 48.15685 | 13.11572 | 38077 ft | 437 kts | 313° |
| 2026-05-08 13:59 | 48.20157 | 13.05478 | 38074 ft | 437 kts | 313° |
| 2026-05-08 14:00 | 48.24769 | 12.99511 | 38078 ft | 439 kts | 317° |
| 2026-05-08 14:00 | 48.29607 | 12.93868 | 38090 ft | 440 kts | 318° |
| 2026-05-08 14:01 | 48.34441 | 12.88228 | 38078 ft | 440 kts | 317° |
| 2026-05-08 14:01 | 48.39264 | 12.82565 | 38101 ft | 440 kts | 317° |
| 2026-05-08 14:02 | 48.44070 | 12.76885 | 38091 ft | 440 kts | 317° |
| 2026-05-08 14:02 | 48.48897 | 12.71195 | 38099 ft | 440 kts | 318° |
| 2026-05-08 14:03 | 48.53718 | 12.65501 | 38081 ft | 440 kts | 317° |
| 2026-05-08 14:03 | 48.58542 | 12.59788 | 38081 ft | 440 kts | 317° |
| 2026-05-08 14:04 | 48.63348 | 12.54073 | 38091 ft | 440 kts | 318° |
| 2026-05-08 14:04 | 48.68131 | 12.48374 | 38091 ft | 440 kts | 318° |
| 2026-05-08 14:05 | 48.72937 | 12.42631 | 38093 ft | 440 kts | 317° |
| 2026-05-08 14:05 | 48.77735 | 12.36876 | 38105 ft | 440 kts | 317° |
| 2026-05-08 14:06 | 48.82526 | 12.31118 | 38118 ft | 439 kts | 318° |
| 2026-05-08 14:06 | 48.87327 | 12.25342 | 38127 ft | 440 kts | 318° |
| 2026-05-08 14:07 | 48.92121 | 12.19559 | 38114 ft | 440 kts | 318° |
| 2026-05-08 14:07 | 48.96905 | 12.13710 | 38111 ft | 440 kts | 317° |
| 2026-05-08 14:08 | 49.01695 | 12.07876 | 38104 ft | 441 kts | 318° |
| 2026-05-08 14:08 | 49.06476 | 12.02050 | 38102 ft | 441 kts | 318° |
| 2026-05-08 14:09 | 49.11278 | 11.96204 | 38102 ft | 441 kts | 318° |
| 2026-05-08 14:09 | 49.16080 | 11.90342 | 38103 ft | 442 kts | 318° |
| 2026-05-08 14:10 | 49.20888 | 11.84477 | 38100 ft | 442 kts | 319° |
| 2026-05-08 14:10 | 49.25694 | 11.78614 | 38107 ft | 442 kts | 318° |
| 2026-05-08 14:11 | 49.30463 | 11.72751 | 38112 ft | 442 kts | 318° |
| 2026-05-08 14:11 | 49.35250 | 11.66833 | 38110 ft | 442 kts | 318° |
| 2026-05-08 14:12 | 49.40033 | 11.60898 | 38117 ft | 442 kts | 318° |
| 2026-05-08 14:12 | 49.44821 | 11.54958 | 38107 ft | 442 kts | 318° |
| 2026-05-08 14:13 | 49.49607 | 11.49026 | 38103 ft | 442 kts | 318° |
| 2026-05-08 14:13 | 49.54376 | 11.43078 | 38106 ft | 442 kts | 318° |
| 2026-05-08 14:14 | 49.59011 | 11.36882 | 38110 ft | 441 kts | 315° |
| 2026-05-08 14:14 | 49.63550 | 11.30514 | 38114 ft | 441 kts | 315° |
| 2026-05-08 14:15 | 49.68079 | 11.24138 | 38110 ft | 441 kts | 315° |
| 2026-05-08 14:15 | 49.72589 | 11.17792 | 38112 ft | 441 kts | 315° |
| 2026-05-08 14:16 | 49.77139 | 11.11366 | 38108 ft | 440 kts | 315° |
| 2026-05-08 14:16 | 49.81668 | 11.04962 | 38111 ft | 441 kts | 315° |
| 2026-05-08 14:17 | 49.86162 | 10.98584 | 38114 ft | 440 kts | 315° |
| 2026-05-08 14:17 | 49.90675 | 10.92157 | 38141 ft | 441 kts | 315° |
| 2026-05-08 14:18 | 49.95187 | 10.85713 | 38120 ft | 440 kts | 315° |
| 2026-05-08 14:18 | 49.99691 | 10.79260 | 38125 ft | 440 kts | 315° |
| 2026-05-08 14:19 | 50.04191 | 10.72806 | 38126 ft | 440 kts | 315° |
| 2026-05-08 14:19 | 50.08680 | 10.66338 | 38125 ft | 440 kts | 315° |
| 2026-05-08 14:20 | 50.13174 | 10.59874 | 38132 ft | 440 kts | 315° |
| 2026-05-08 14:20 | 50.17670 | 10.53376 | 38140 ft | 440 kts | 314° |
| 2026-05-08 14:21 | 50.22150 | 10.46876 | 38135 ft | 439 kts | 315° |
| 2026-05-08 14:21 | 50.26618 | 10.40382 | 38137 ft | 439 kts | 314° |
| 2026-05-08 14:22 | 50.31096 | 10.33850 | 38130 ft | 439 kts | 314° |
| 2026-05-08 14:22 | 50.35487 | 10.27276 | 38136 ft | 438 kts | 310° |
| 2026-05-08 14:23 | 50.39480 | 10.20066 | 38145 ft | 437 kts | 308° |
| 2026-05-08 14:23 | 50.43434 | 10.12807 | 38141 ft | 437 kts | 308° |
| 2026-05-08 14:24 | 50.47389 | 10.05547 | 38147 ft | 437 kts | 308° |
| 2026-05-08 14:24 | 50.51342 | 9.98277 | 38143 ft | 437 kts | 308° |
| 2026-05-08 14:25 | 50.55289 | 9.91003 | 38144 ft | 437 kts | 308° |
| 2026-05-08 14:25 | 50.59226 | 9.83712 | 38144 ft | 437 kts | 308° |
| 2026-05-08 14:26 | 50.63133 | 9.76447 | 38146 ft | 437 kts | 308° |
| 2026-05-08 14:26 | 50.67057 | 9.69137 | 38148 ft | 437 kts | 308° |
| 2026-05-08 14:27 | 50.70976 | 9.61833 | 38150 ft | 437 kts | 308° |
| 2026-05-08 14:27 | 50.74902 | 9.54486 | 38144 ft | 437 kts | 308° |
| 2026-05-08 14:28 | 50.78805 | 9.47137 | 38150 ft | 437 kts | 308° |
| 2026-05-08 14:28 | 50.82719 | 9.39797 | 38148 ft | 437 kts | 308° |
| 2026-05-08 14:29 | 50.86622 | 9.32424 | 38154 ft | 436 kts | 307° |
| 2026-05-08 14:29 | 50.90518 | 9.25032 | 38160 ft | 437 kts | 308° |
| 2026-05-08 14:30 | 50.94421 | 9.17644 | 38164 ft | 437 kts | 307° |
| 2026-05-08 14:30 | 50.98305 | 9.10250 | 38172 ft | 436 kts | 307° |
| 2026-05-08 14:31 | 51.02185 | 9.02836 | 38160 ft | 436 kts | 307° |
| 2026-05-08 14:31 | 51.06062 | 8.95423 | 38165 ft | 436 kts | 307° |
| 2026-05-08 14:32 | 51.11860 | 8.84261 | 38154 ft | 436 kts | 307° |
| 2026-05-08 14:32 | 51.15924 | 8.77154 | 38142 ft | 438 kts | 311° |
| 2026-05-08 14:33 | 51.20193 | 8.70166 | 38132 ft | 438 kts | 312° |
| 2026-05-08 14:33 | 51.24412 | 8.63226 | 38150 ft | 438 kts | 311° |
| 2026-05-08 14:34 | 51.28644 | 8.56252 | 38135 ft | 437 kts | 311° |
| 2026-05-08 14:34 | 51.32868 | 8.49267 | 38147 ft | 437 kts | 311° |
| 2026-05-08 14:35 | 51.37081 | 8.42266 | 38133 ft | 437 kts | 311° |
| 2026-05-08 14:35 | 51.40619 | 8.36368 | 38136 ft | 437 kts | 311° |
| 2026-05-08 14:36 | 51.44793 | 8.29386 | 38140 ft | 437 kts | 311° |
| 2026-05-08 14:36 | 51.48999 | 8.22352 | 38143 ft | 437 kts | 311° |
| 2026-05-08 14:37 | 51.53212 | 8.15286 | 38152 ft | 437 kts | 311° |
| 2026-05-08 14:37 | 51.57407 | 8.08227 | 38127 ft | 434 kts | 311° |
| 2026-05-08 14:38 | 51.59482 | 8.04733 | 37824 ft | 432 kts | 311° |
| 2026-05-08 14:38 | 51.61563 | 8.01212 | 37543 ft | 434 kts | 311° |
| 2026-05-08 14:38 | 51.63235 | 7.98380 | 37331 ft | 434 kts | 311° |
| 2026-05-08 14:38 | 51.65317 | 7.94853 | 37066 ft | 435 kts | 311° |
| 2026-05-08 14:39 | 51.67397 | 7.91323 | 36809 ft | 435 kts | 311° |
| 2026-05-08 14:39 | 51.69481 | 7.87790 | 36557 ft | 435 kts | 311° |
| 2026-05-08 14:39 | 51.71557 | 7.84256 | 36310 ft | 435 kts | 311° |
| 2026-05-08 14:39 | 51.73633 | 7.80718 | 36064 ft | 434 kts | 311° |
| 2026-05-08 14:40 | 51.75705 | 7.77184 | 35824 ft | 433 kts | 310° |
| 2026-05-08 14:40 | 51.77771 | 7.73651 | 35576 ft | 431 kts | 310° |
| 2026-05-08 14:40 | 51.79823 | 7.70132 | 35341 ft | 429 kts | 310° |
| 2026-05-08 14:40 | 51.81857 | 7.66653 | 35135 ft | 426 kts | 310° |
| 2026-05-08 14:41 | 51.83885 | 7.63177 | 34873 ft | 423 kts | 310° |
| 2026-05-08 14:41 | 51.85894 | 7.59715 | 34644 ft | 421 kts | 310° |
| 2026-05-08 14:41 | 51.87898 | 7.56272 | 34408 ft | 419 kts | 310° |
| 2026-05-08 14:41 | 51.89887 | 7.52851 | 34170 ft | 416 kts | 310° |
| 2026-05-08 14:42 | 51.91829 | 7.49480 | 33776 ft | 413 kts | 310° |
| 2026-05-08 14:42 | 51.93763 | 7.46076 | 33294 ft | 408 kts | 310° |
| 2026-05-08 14:42 | 51.95686 | 7.42704 | 32807 ft | 405 kts | 310° |
| 2026-05-08 14:42 | 51.97610 | 7.39387 | 32303 ft | 402 kts | 310° |
| 2026-05-08 14:43 | 51.99515 | 7.36109 | 31805 ft | 399 kts | 310° |
| 2026-05-08 14:43 | 52.01419 | 7.32827 | 31305 ft | 397 kts | 311° |
| 2026-05-08 14:43 | 52.03302 | 7.29568 | 30827 ft | 395 kts | 311° |
| 2026-05-08 14:43 | 52.05178 | 7.26322 | 30344 ft | 393 kts | 311° |
| 2026-05-08 14:44 | 52.07036 | 7.23091 | 29837 ft | 390 kts | 311° |
| 2026-05-08 14:44 | 52.08876 | 7.19864 | 29285 ft | 388 kts | 311° |
| 2026-05-08 14:44 | 52.10704 | 7.16679 | 28775 ft | 385 kts | 311° |
| 2026-05-08 14:44 | 52.12536 | 7.13484 | 28301 ft | 381 kts | 311° |
| 2026-05-08 14:45 | 52.14330 | 7.10347 | 27845 ft | 377 kts | 311° |
| 2026-05-08 14:45 | 52.16108 | 7.07226 | 27389 ft | 375 kts | 311° |
| 2026-05-08 14:45 | 52.17877 | 7.04108 | 26897 ft | 373 kts | 310° |
| 2026-05-08 14:45 | 52.19626 | 7.01015 | 26427 ft | 371 kts | 311° |
| 2026-05-08 14:46 | 52.21374 | 6.97919 | 25959 ft | 369 kts | 309° |
| 2026-05-08 14:46 | 52.23016 | 6.94735 | 25514 ft | 366 kts | 307° |
| 2026-05-08 14:46 | 52.24608 | 6.91544 | 25059 ft | 361 kts | 307° |
| 2026-05-08 14:46 | 52.26198 | 6.88361 | 24597 ft | 361 kts | 307° |
| 2026-05-08 14:47 | 52.27782 | 6.85194 | 24132 ft | 360 kts | 307° |
| 2026-05-08 14:47 | 52.29366 | 6.82022 | 23681 ft | 360 kts | 307° |
| 2026-05-08 14:47 | 52.30945 | 6.78856 | 23165 ft | 358 kts | 307° |
| 2026-05-08 14:47 | 52.32512 | 6.75706 | 22662 ft | 356 kts | 307° |
| 2026-05-08 14:48 | 52.34071 | 6.72568 | 22201 ft | 354 kts | 307° |
| 2026-05-08 14:48 | 52.35613 | 6.69455 | 21734 ft | 352 kts | 307° |
| 2026-05-08 14:48 | 52.37151 | 6.66356 | 21276 ft | 349 kts | 307° |
| 2026-05-08 14:48 | 52.38679 | 6.63272 | 20831 ft | 347 kts | 308° |
| 2026-05-08 14:49 | 52.40179 | 6.60253 | 20419 ft | 345 kts | 307° |
| 2026-05-08 14:49 | 52.41685 | 6.57205 | 20016 ft | 342 kts | 307° |
| 2026-05-08 14:49 | 52.43178 | 6.54185 | 19624 ft | 340 kts | 307° |
| 2026-05-08 14:49 | 52.44668 | 6.51173 | 19222 ft | 339 kts | 307° |
| 2026-05-08 14:50 | 52.46080 | 6.48097 | 18823 ft | 337 kts | 300° |
| 2026-05-08 14:50 | 52.46953 | 6.44558 | 18429 ft | 334 kts | 281° |
| 2026-05-08 14:50 | 52.47231 | 6.40790 | 18037 ft | 333 kts | 274° |
| 2026-05-08 14:50 | 52.47388 | 6.37006 | 17624 ft | 333 kts | 273° |
| 2026-05-08 14:51 | 52.47545 | 6.33216 | 17227 ft | 332 kts | 274° |
| 2026-05-08 14:51 | 52.47711 | 6.29443 | 16835 ft | 332 kts | 274° |
| 2026-05-08 14:51 | 52.47884 | 6.25682 | 16474 ft | 330 kts | 274° |
| 2026-05-08 14:51 | 52.48064 | 6.21920 | 16121 ft | 329 kts | 274° |
| 2026-05-08 14:52 | 52.48249 | 6.18194 | 15770 ft | 327 kts | 274° |
| 2026-05-08 14:52 | 52.48609 | 6.10760 | 15050 ft | 326 kts | 274° |
| 2026-05-08 14:52 | 52.48787 | 6.07057 | 14700 ft | 325 kts | 274° |
| 2026-05-08 14:53 | 52.48965 | 6.03370 | 14349 ft | 324 kts | 274° |
| 2026-05-08 14:53 | 52.49140 | 5.99733 | 14008 ft | 324 kts | 274° |
| 2026-05-08 14:53 | 52.49320 | 5.96054 | 13623 ft | 323 kts | 274° |
| 2026-05-08 14:53 | 52.49495 | 5.92383 | 13248 ft | 322 kts | 273° |
| 2026-05-08 14:54 | 52.49666 | 5.88726 | 12891 ft | 321 kts | 273° |
| 2026-05-08 14:54 | 52.49834 | 5.85082 | 12549 ft | 319 kts | 273° |
| 2026-05-08 14:54 | 52.50003 | 5.81446 | 12203 ft | 318 kts | 273° |
| 2026-05-08 14:54 | 52.50167 | 5.77833 | 11862 ft | 317 kts | 273° |
| 2026-05-08 14:55 | 52.50331 | 5.74234 | 11520 ft | 316 kts | 273° |
| 2026-05-08 14:55 | 52.50493 | 5.70641 | 11177 ft | 316 kts | 272° |
| 2026-05-08 14:55 | 52.50654 | 5.67045 | 10831 ft | 316 kts | 273° |
| 2026-05-08 14:55 | 52.50813 | 5.63495 | 10558 ft | 308 kts | 272° |
| 2026-05-08 14:56 | 52.50965 | 5.60053 | 10352 ft | 295 kts | 272° |
| 2026-05-08 14:56 | 52.50872 | 5.56766 | 10158 ft | 285 kts | 255° |
| 2026-05-08 14:56 | 52.50092 | 5.53839 | 9926 ft | 279 kts | 238° |
| 2026-05-08 14:56 | 52.49079 | 5.51149 | 9687 ft | 275 kts | 237° |
| 2026-05-08 14:57 | 52.48069 | 5.48502 | 9458 ft | 271 kts | 237° |
| 2026-05-08 14:57 | 52.47085 | 5.45883 | 9245 ft | 268 kts | 238° |
| 2026-05-08 14:57 | 52.46120 | 5.43293 | 9018 ft | 264 kts | 238° |
| 2026-05-08 14:57 | 52.45173 | 5.40746 | 8814 ft | 259 kts | 238° |
| 2026-05-08 14:58 | 52.44242 | 5.38236 | 8614 ft | 256 kts | 238° |
| 2026-05-08 14:58 | 52.43316 | 5.35739 | 8413 ft | 257 kts | 238° |
| 2026-05-08 14:58 | 52.42401 | 5.33274 | 8217 ft | 256 kts | 238° |
| 2026-05-08 14:58 | 52.41467 | 5.30751 | 8015 ft | 255 kts | 238° |
| 2026-05-08 14:59 | 52.40561 | 5.28300 | 7816 ft | 253 kts | 237° |
| 2026-05-08 14:59 | 52.38731 | 5.23359 | 7412 ft | 254 kts | 238° |
| 2026-05-08 14:59 | 52.37816 | 5.20900 | 7218 ft | 254 kts | 238° |
| 2026-05-08 15:00 | 52.36865 | 5.18335 | 7027 ft | 264 kts | 238° |
| 2026-05-08 15:00 | 52.35922 | 5.15793 | 6772 ft | 259 kts | 238° |
| 2026-05-08 15:00 | 52.34989 | 5.13276 | 6432 ft | 257 kts | 238° |
| 2026-05-08 15:00 | 52.34060 | 5.10776 | 6059 ft | 256 kts | 238° |
| 2026-05-08 15:01 | 52.33135 | 5.08293 | 5677 ft | 255 kts | 238° |
| 2026-05-08 15:01 | 52.32139 | 5.05880 | 5308 ft | 255 kts | 233° |
| 2026-05-08 15:01 | 52.31068 | 5.03563 | 4955 ft | 255 kts | 232° |
| 2026-05-08 15:01 | 52.29992 | 5.01267 | 4623 ft | 254 kts | 232° |
| 2026-05-08 15:02 | 52.28919 | 4.98982 | 4417 ft | 254 kts | 232° |
| 2026-05-08 15:02 | 52.27842 | 4.96689 | 4270 ft | 254 kts | 232° |
| 2026-05-08 15:02 | 52.26770 | 4.94404 | 4139 ft | 254 kts | 232° |
| 2026-05-08 15:02 | 52.25697 | 4.92115 | 4081 ft | 254 kts | 232° |
| 2026-05-08 15:03 | 52.24622 | 4.89815 | 4094 ft | 255 kts | 232° |
| 2026-05-08 15:03 | 52.23551 | 4.87522 | 4104 ft | 255 kts | 232° |
| 2026-05-08 15:03 | 52.22471 | 4.85205 | 4113 ft | 255 kts | 232° |
| 2026-05-08 15:03 | 52.21406 | 4.82920 | 4112 ft | 256 kts | 232° |
| 2026-05-08 15:04 | 52.20319 | 4.80585 | 4111 ft | 256 kts | 232° |
| 2026-05-08 15:04 | 52.19242 | 4.78277 | 4115 ft | 256 kts | 232° |
| 2026-05-08 15:04 | 52.18165 | 4.75970 | 4115 ft | 255 kts | 232° |
| 2026-05-08 15:04 | 52.17085 | 4.73668 | 4114 ft | 256 kts | 232° |
| 2026-05-08 15:05 | 52.16002 | 4.71363 | 4113 ft | 256 kts | 232° |
| 2026-05-08 15:05 | 52.14937 | 4.69104 | 4114 ft | 256 kts | 232° |
| 2026-05-08 15:05 | 52.13844 | 4.66784 | 4114 ft | 256 kts | 232° |
| 2026-05-08 15:05 | 52.12758 | 4.64442 | 4113 ft | 256 kts | 236° |
| 2026-05-08 15:06 | 52.12140 | 4.61795 | 4100 ft | 255 kts | 263° |
| 2026-05-08 15:06 | 52.12297 | 4.58953 | 3954 ft | 253 kts | 289° |
| 2026-05-08 15:06 | 52.13165 | 4.56511 | 3633 ft | 249 kts | 309° |
| 2026-05-08 15:06 | 52.14287 | 4.54382 | 3256 ft | 246 kts | 312° |
| 2026-05-08 15:07 | 52.15461 | 4.52366 | 2903 ft | 245 kts | 322° |
| 2026-05-08 15:07 | 52.16985 | 4.51272 | 2548 ft | 240 kts | 355° |
| 2026-05-08 15:07 | 52.18609 | 4.51652 | 2229 ft | 236 kts | 19° |
| 2026-05-08 15:07 | 52.20095 | 4.52707 | 1996 ft | 228 kts | 31° |
| 2026-05-08 15:08 | 52.21288 | 4.54254 | 1946 ft | 211 kts | 47° |
| 2026-05-08 15:08 | 52.21889 | 4.55448 | 1947 ft | 202 kts | 54° |
| 2026-05-08 15:08 | 52.22835 | 4.57952 | 1977 ft | 180 kts | 57° |
| 2026-05-08 15:08 | 52.23495 | 4.59678 | 2004 ft | 177 kts | 57° |
| 2026-05-08 15:09 | 52.24116 | 4.61291 | 1827 ft | 163 kts | 57° |
| 2026-05-08 15:09 | 52.24712 | 4.62837 | 1594 ft | 158 kts | 57° |
| 2026-05-08 15:09 | 52.25287 | 4.64329 | 1374 ft | 155 kts | 57° |
| 2026-05-08 15:09 | 52.25821 | 4.65717 | 1156 ft | 133 kts | 56° |
| 2026-05-08 15:10 | 52.26288 | 4.66954 | 939 ft | 129 kts | 57° |
| 2026-05-08 15:10 | 52.26767 | 4.68198 | 786 ft | 128 kts | 54° |
| 2026-05-08 15:10 | 52.27248 | 4.69422 | 689 ft | 128 kts | 55° |
| 2026-05-08 15:10 | 52.27722 | 4.70643 | 521 ft | 127 kts | 57° |
| 2026-05-08 15:11 | 52.28200 | 4.71861 | 307 ft | 127 kts | 58° |
| 2026-05-08 15:11 | 52.28665 | 4.73086 | 140 ft | 127 kts | 58° |
| 2026-05-08 15:11 | 52.29134 | 4.74300 | 9 ft | 123 kts | 58° |
| 2026-05-08 15:11 | 52.29525 | 4.75325 | 3 ft | 80 kts | 58° |
| 2026-05-08 15:12 | 52.29762 | 4.75945 | 2 ft | 58 kts | 57° |
| 2026-05-08 15:12 | 52.29952 | 4.76427 | 2 ft | 28 kts | 51° |
| 2026-05-08 15:12 | 52.30055 | 4.76565 | 4 ft | 17 kts | 29° |
| 2026-05-08 15:12 | 52.30167 | 4.76662 | 4 ft | 19 kts | 27° |
| 2026-05-08 15:13 | 52.30283 | 4.76766 | 4 ft | 19 kts | 43° |
| 2026-05-08 15:13 | 52.30355 | 4.76939 | 4 ft | 12 kts | 57° |
| 2026-05-08 15:13 | 52.30411 | 4.77046 | 4 ft | 14 kts | 11° |
| 2026-05-08 15:13 | 52.30492 | 4.76981 | 4 ft | 3 kts | 325° |
| 2026-05-08 15:14 | 52.30509 | 4.76936 | 4 ft | 6 kts | 295° |
| 2026-05-08 15:14 | 52.30530 | 4.76861 | 4 ft | 8 kts | 293° |
| 2026-05-08 15:14 | 52.30543 | 4.76812 | 4 ft | 1 kts | 293° |
| 2026-05-08 15:14 | 52.30545 | 4.76805 | 4 ft | 0 kts | 293° |